sensor_id;sensor_type;location;lat;lon;timestamp;P1;durP1;ratioP1;P2;durP2;ratioP2
58372;SDS011;44177;43.356;27.672;2023-06-26T00:01:51;3.60;;;1.98;;
58372;SDS011;44177;43.356;27.672;2023-06-26T00:04:16;2.33;;;1.48;;
58372;SDS011;44177;43.356;27.672;2023-06-26T00:06:42;2.38;;;1.33;;
58372;SDS011;44177;43.356;27.672;2023-06-26T00:09:07;1.52;;;1.20;;
58372;SDS011;44177;43.356;27.672;2023-06-26T00:11:33;2.13;;;1.50;;
58372;SDS011;44177;43.356;27.672;2023-06-26T00:14:01;1.65;;;1.45;;
58372;SDS011;44177;43.356;27.672;2023-06-26T00:16:27;2.67;;;1.63;;
58372;SDS011;44177;43.356;27.672;2023-06-26T00:18:53;6.05;;;1.70;;
58372;SDS011;44177;43.356;27.672;2023-06-26T00:21:19;1.88;;;1.42;;
58372;SDS011;44177;43.356;27.672;2023-06-26T00:23:45;1.52;;;1.42;;
58372;SDS011;44177;43.356;27.672;2023-06-26T00:26:11;3.83;;;1.90;;
58372;SDS011;44177;43.356;27.672;2023-06-26T00:28:37;4.90;;;2.00;;
58372;SDS011;44177;43.356;27.672;2023-06-26T00:31:02;1.67;;;1.52;;
58372;SDS011;44177;43.356;27.672;2023-06-26T00:33:28;2.25;;;1.77;;
58372;SDS011;44177;43.356;27.672;2023-06-26T00:35:53;1.98;;;1.60;;
58372;SDS011;44177;43.356;27.672;2023-06-26T00:38:18;2.78;;;1.83;;
58372;SDS011;44177;43.356;27.672;2023-06-26T00:40:44;1.70;;;1.60;;
58372;SDS011;44177;43.356;27.672;2023-06-26T00:43:09;5.25;;;2.15;;
58372;SDS011;44177;43.356;27.672;2023-06-26T00:45:35;2.58;;;1.63;;
58372;SDS011;44177;43.356;27.672;2023-06-26T00:48:01;2.08;;;1.45;;
58372;SDS011;44177;43.356;27.672;2023-06-26T00:50:27;3.80;;;1.92;;
58372;SDS011;44177;43.356;27.672;2023-06-26T00:52:53;2.03;;;1.48;;
58372;SDS011;44177;43.356;27.672;2023-06-26T00:55:21;2.90;;;1.77;;
58372;SDS011;44177;43.356;27.672;2023-06-26T00:57:47;3.13;;;1.92;;
58372;SDS011;44177;43.356;27.672;2023-06-26T01:00:13;2.90;;;1.90;;
58372;SDS011;44177;43.356;27.672;2023-06-26T01:02:39;2.80;;;2.17;;
58372;SDS011;44177;43.356;27.672;2023-06-26T01:05:04;3.35;;;2.40;;
58372;SDS011;44177;43.356;27.672;2023-06-26T01:07:31;2.92;;;2.05;;
58372;SDS011;44177;43.356;27.672;2023-06-26T01:10:01;3.60;;;2.85;;
58372;SDS011;44177;43.356;27.672;2023-06-26T01:12:29;4.18;;;2.58;;
58372;SDS011;44177;43.356;27.672;2023-06-26T01:14:56;3.33;;;2.35;;
58372;SDS011;44177;43.356;27.672;2023-06-26T01:17:21;3.83;;;2.50;;
58372;SDS011;44177;43.356;27.672;2023-06-26T01:19:48;3.13;;;2.83;;
58372;SDS011;44177;43.356;27.672;2023-06-26T01:28:12;5.47;;;3.17;;
58372;SDS011;44177;43.356;27.672;2023-06-26T01:30:41;4.15;;;2.85;;
58372;SDS011;44177;43.356;27.672;2023-06-26T01:33:09;4.65;;;2.55;;
58372;SDS011;44177;43.356;27.672;2023-06-26T01:35:36;5.38;;;3.00;;
58372;SDS011;44177;43.356;27.672;2023-06-26T01:38:17;5.00;;;2.47;;
58372;SDS011;44177;43.356;27.672;2023-06-26T01:40:44;13.40;;;3.53;;
58372;SDS011;44177;43.356;27.672;2023-06-26T01:43:19;4.72;;;2.83;;
58372;SDS011;44177;43.356;27.672;2023-06-26T01:45:49;5.97;;;3.03;;
58372;SDS011;44177;43.356;27.672;2023-06-26T01:48:16;7.80;;;3.42;;
58372;SDS011;44177;43.356;27.672;2023-06-26T01:50:48;7.65;;;3.20;;
58372;SDS011;44177;43.356;27.672;2023-06-26T01:53:17;6.20;;;3.53;;
58372;SDS011;44177;43.356;27.672;2023-06-26T01:55:53;6.95;;;3.50;;
58372;SDS011;44177;43.356;27.672;2023-06-26T01:58:24;5.75;;;2.95;;
58372;SDS011;44177;43.356;27.672;2023-06-26T02:00:51;7.72;;;3.45;;
58372;SDS011;44177;43.356;27.672;2023-06-26T02:03:16;5.13;;;3.20;;
58372;SDS011;44177;43.356;27.672;2023-06-26T02:05:42;5.88;;;3.63;;
58372;SDS011;44177;43.356;27.672;2023-06-26T02:08:09;6.65;;;3.92;;
58372;SDS011;44177;43.356;27.672;2023-06-26T02:10:35;5.57;;;3.53;;
58372;SDS011;44177;43.356;27.672;2023-06-26T02:13:00;7.20;;;4.47;;
58372;SDS011;44177;43.356;27.672;2023-06-26T02:15:26;6.50;;;3.67;;
58372;SDS011;44177;43.356;27.672;2023-06-26T02:17:52;4.82;;;3.38;;
58372;SDS011;44177;43.356;27.672;2023-06-26T02:20:17;7.53;;;4.63;;
58372;SDS011;44177;43.356;27.672;2023-06-26T02:22:42;6.70;;;3.65;;
58372;SDS011;44177;43.356;27.672;2023-06-26T02:25:11;7.15;;;3.60;;
58372;SDS011;44177;43.356;27.672;2023-06-26T02:27:37;7.10;;;4.00;;
58372;SDS011;44177;43.356;27.672;2023-06-26T02:30:03;7.03;;;3.95;;
58372;SDS011;44177;43.356;27.672;2023-06-26T02:32:29;6.88;;;3.50;;
58372;SDS011;44177;43.356;27.672;2023-06-26T02:34:55;13.30;;;4.97;;
58372;SDS011;44177;43.356;27.672;2023-06-26T02:37:20;8.25;;;4.53;;
58372;SDS011;44177;43.356;27.672;2023-06-26T02:39:46;6.25;;;4.15;;
58372;SDS011;44177;43.356;27.672;2023-06-26T02:42:11;7.75;;;3.83;;
58372;SDS011;44177;43.356;27.672;2023-06-26T02:44:37;8.52;;;4.40;;
58372;SDS011;44177;43.356;27.672;2023-06-26T02:47:02;6.70;;;4.45;;
58372;SDS011;44177;43.356;27.672;2023-06-26T02:49:28;8.35;;;3.95;;
58372;SDS011;44177;43.356;27.672;2023-06-26T02:51:53;7.45;;;4.65;;
58372;SDS011;44177;43.356;27.672;2023-06-26T02:54:19;6.35;;;3.33;;
58372;SDS011;44177;43.356;27.672;2023-06-26T02:56:44;8.43;;;4.30;;
58372;SDS011;44177;43.356;27.672;2023-06-26T02:59:10;7.93;;;4.32;;
58372;SDS011;44177;43.356;27.672;2023-06-26T03:01:35;8.40;;;3.83;;
58372;SDS011;44177;43.356;27.672;2023-06-26T03:04:01;7.65;;;4.07;;
58372;SDS011;44177;43.356;27.672;2023-06-26T03:06:27;7.63;;;3.85;;
58372;SDS011;44177;43.356;27.672;2023-06-26T03:08:53;6.50;;;4.50;;
58372;SDS011;44177;43.356;27.672;2023-06-26T03:11:19;7.03;;;4.43;;
58372;SDS011;44177;43.356;27.672;2023-06-26T03:13:44;7.82;;;4.65;;
58372;SDS011;44177;43.356;27.672;2023-06-26T03:16:10;8.23;;;5.07;;
58372;SDS011;44177;43.356;27.672;2023-06-26T03:18:36;7.03;;;4.90;;
58372;SDS011;44177;43.356;27.672;2023-06-26T03:21:01;13.75;;;5.53;;
58372;SDS011;44177;43.356;27.672;2023-06-26T03:23:27;7.72;;;4.78;;
58372;SDS011;44177;43.356;27.672;2023-06-26T03:25:52;7.15;;;4.95;;
58372;SDS011;44177;43.356;27.672;2023-06-26T03:28:18;8.40;;;5.05;;
58372;SDS011;44177;43.356;27.672;2023-06-26T03:30:43;7.22;;;5.32;;
58372;SDS011;44177;43.356;27.672;2023-06-26T03:33:09;8.88;;;5.00;;
58372;SDS011;44177;43.356;27.672;2023-06-26T03:35:34;7.35;;;4.93;;
58372;SDS011;44177;43.356;27.672;2023-06-26T03:38:00;9.73;;;5.35;;
58372;SDS011;44177;43.356;27.672;2023-06-26T03:40:26;8.88;;;4.60;;
58372;SDS011;44177;43.356;27.672;2023-06-26T03:42:52;7.68;;;5.05;;
58372;SDS011;44177;43.356;27.672;2023-06-26T03:45:17;8.38;;;4.88;;
58372;SDS011;44177;43.356;27.672;2023-06-26T03:47:44;8.43;;;6.18;;
58372;SDS011;44177;43.356;27.672;2023-06-26T03:50:12;4.80;;;3.80;;
58372;SDS011;44177;43.356;27.672;2023-06-26T03:52:37;7.55;;;3.72;;
58372;SDS011;44177;43.356;27.672;2023-06-26T03:55:03;4.72;;;3.50;;
58372;SDS011;44177;43.356;27.672;2023-06-26T03:57:29;4.93;;;3.13;;
58372;SDS011;44177;43.356;27.672;2023-06-26T03:59:54;3.60;;;2.50;;
58372;SDS011;44177;43.356;27.672;2023-06-26T04:02:19;2.35;;;1.98;;
58372;SDS011;44177;43.356;27.672;2023-06-26T04:04:45;2.45;;;2.00;;
58372;SDS011;44177;43.356;27.672;2023-06-26T04:07:10;2.92;;;1.95;;
58372;SDS011;44177;43.356;27.672;2023-06-26T04:09:36;3.25;;;1.75;;
58372;SDS011;44177;43.356;27.672;2023-06-26T04:12:02;2.15;;;1.60;;
58372;SDS011;44177;43.356;27.672;2023-06-26T04:14:27;2.53;;;1.90;;
58372;SDS011;44177;43.356;27.672;2023-06-26T04:16:53;2.33;;;1.88;;
58372;SDS011;44177;43.356;27.672;2023-06-26T04:19:18;2.92;;;2.08;;
58372;SDS011;44177;43.356;27.672;2023-06-26T04:21:44;2.03;;;1.75;;
58372;SDS011;44177;43.356;27.672;2023-06-26T04:24:10;2.22;;;1.83;;
58372;SDS011;44177;43.356;27.672;2023-06-26T04:26:35;2.42;;;2.00;;
58372;SDS011;44177;43.356;27.672;2023-06-26T04:29:01;2.40;;;1.83;;
58372;SDS011;44177;43.356;27.672;2023-06-26T04:31:26;2.15;;;1.80;;
58372;SDS011;44177;43.356;27.672;2023-06-26T04:33:52;3.20;;;2.25;;
58372;SDS011;44177;43.356;27.672;2023-06-26T04:36:19;2.33;;;1.65;;
58372;SDS011;44177;43.356;27.672;2023-06-26T04:38:45;2.75;;;1.88;;
58372;SDS011;44177;43.356;27.672;2023-06-26T04:41:13;2.63;;;2.08;;
58372;SDS011;44177;43.356;27.672;2023-06-26T04:43:38;2.50;;;2.25;;
58372;SDS011;44177;43.356;27.672;2023-06-26T04:46:04;2.33;;;2.00;;
58372;SDS011;44177;43.356;27.672;2023-06-26T04:48:31;4.88;;;2.75;;
58372;SDS011;44177;43.356;27.672;2023-06-26T04:50:57;3.88;;;2.75;;
58372;SDS011;44177;43.356;27.672;2023-06-26T04:53:23;3.70;;;2.78;;
58372;SDS011;44177;43.356;27.672;2023-06-26T04:55:50;3.40;;;2.35;;
58372;SDS011;44177;43.356;27.672;2023-06-26T04:58:16;3.53;;;2.60;;
58372;SDS011;44177;43.356;27.672;2023-06-26T05:00:41;3.90;;;2.75;;
58372;SDS011;44177;43.356;27.672;2023-06-26T05:03:08;4.45;;;2.97;;
58372;SDS011;44177;43.356;27.672;2023-06-26T05:05:34;3.90;;;2.97;;
58372;SDS011;44177;43.356;27.672;2023-06-26T05:08:12;3.30;;;2.75;;
58372;SDS011;44177;43.356;27.672;2023-06-26T05:10:38;5.13;;;3.60;;
58372;SDS011;44177;43.356;27.672;2023-06-26T05:13:04;5.22;;;3.50;;
58372;SDS011;44177;43.356;27.672;2023-06-26T05:15:29;5.97;;;3.35;;
58372;SDS011;44177;43.356;27.672;2023-06-26T05:17:55;3.58;;;2.47;;
58372;SDS011;44177;43.356;27.672;2023-06-26T05:20:20;3.95;;;2.67;;
58372;SDS011;44177;43.356;27.672;2023-06-26T05:22:45;3.33;;;2.83;;
58372;SDS011;44177;43.356;27.672;2023-06-26T05:25:11;6.93;;;3.58;;
58372;SDS011;44177;43.356;27.672;2023-06-26T05:27:38;4.85;;;3.55;;
58372;SDS011;44177;43.356;27.672;2023-06-26T05:30:04;4.93;;;3.67;;
58372;SDS011;44177;43.356;27.672;2023-06-26T05:32:30;6.20;;;3.70;;
58372;SDS011;44177;43.356;27.672;2023-06-26T05:34:59;4.88;;;3.42;;
58372;SDS011;44177;43.356;27.672;2023-06-26T05:37:27;4.50;;;3.10;;
58372;SDS011;44177;43.356;27.672;2023-06-26T05:39:54;5.90;;;3.60;;
58372;SDS011;44177;43.356;27.672;2023-06-26T05:42:19;4.38;;;3.40;;
58372;SDS011;44177;43.356;27.672;2023-06-26T05:44:45;5.32;;;3.13;;
58372;SDS011;44177;43.356;27.672;2023-06-26T05:47:10;5.40;;;3.50;;
58372;SDS011;44177;43.356;27.672;2023-06-26T05:49:36;4.53;;;3.33;;
58372;SDS011;44177;43.356;27.672;2023-06-26T05:52:01;4.57;;;3.33;;
58372;SDS011;44177;43.356;27.672;2023-06-26T05:54:27;7.47;;;4.07;;
58372;SDS011;44177;43.356;27.672;2023-06-26T05:56:54;4.90;;;3.13;;
58372;SDS011;44177;43.356;27.672;2023-06-26T05:59:24;4.45;;;3.58;;
58372;SDS011;44177;43.356;27.672;2023-06-26T06:01:51;5.00;;;3.13;;
58372;SDS011;44177;43.356;27.672;2023-06-26T06:04:17;4.72;;;3.05;;
58372;SDS011;44177;43.356;27.672;2023-06-26T06:06:42;4.57;;;3.15;;
58372;SDS011;44177;43.356;27.672;2023-06-26T06:09:08;4.18;;;2.75;;
58372;SDS011;44177;43.356;27.672;2023-06-26T06:11:33;3.88;;;2.97;;
58372;SDS011;44177;43.356;27.672;2023-06-26T06:13:59;4.20;;;3.30;;
58372;SDS011;44177;43.356;27.672;2023-06-26T06:16:25;5.38;;;3.45;;
58372;SDS011;44177;43.356;27.672;2023-06-26T06:18:51;5.25;;;3.30;;
58372;SDS011;44177;43.356;27.672;2023-06-26T06:21:16;4.90;;;3.15;;
58372;SDS011;44177;43.356;27.672;2023-06-26T06:23:41;5.88;;;3.80;;
58372;SDS011;44177;43.356;27.672;2023-06-26T06:26:07;5.57;;;3.72;;
58372;SDS011;44177;43.356;27.672;2023-06-26T06:28:32;6.32;;;3.58;;
58372;SDS011;44177;43.356;27.672;2023-06-26T06:30:58;4.40;;;3.28;;
58372;SDS011;44177;43.356;27.672;2023-06-26T06:33:24;6.15;;;3.80;;
58372;SDS011;44177;43.356;27.672;2023-06-26T06:35:49;4.88;;;3.75;;
58372;SDS011;44177;43.356;27.672;2023-06-26T06:38:15;5.00;;;3.20;;
58372;SDS011;44177;43.356;27.672;2023-06-26T06:40:40;4.57;;;3.35;;
58372;SDS011;44177;43.356;27.672;2023-06-26T06:43:05;4.80;;;3.40;;
58372;SDS011;44177;43.356;27.672;2023-06-26T06:45:31;5.53;;;3.65;;
58372;SDS011;44177;43.356;27.672;2023-06-26T06:47:56;3.47;;;2.97;;
58372;SDS011;44177;43.356;27.672;2023-06-26T06:50:22;6.32;;;3.83;;
58372;SDS011;44177;43.356;27.672;2023-06-26T06:52:47;4.47;;;2.85;;
58372;SDS011;44177;43.356;27.672;2023-06-26T06:55:13;4.10;;;3.17;;
58372;SDS011;44177;43.356;27.672;2023-06-26T06:57:39;4.47;;;3.22;;
58372;SDS011;44177;43.356;27.672;2023-06-26T07:00:08;5.75;;;3.25;;
58372;SDS011;44177;43.356;27.672;2023-06-26T07:02:39;4.75;;;2.97;;
58372;SDS011;44177;43.356;27.672;2023-06-26T07:05:07;3.85;;;2.95;;
58372;SDS011;44177;43.356;27.672;2023-06-26T07:07:33;4.05;;;3.35;;
58372;SDS011;44177;43.356;27.672;2023-06-26T07:09:59;4.03;;;2.92;;
58372;SDS011;44177;43.356;27.672;2023-06-26T07:12:26;3.00;;;2.60;;
58372;SDS011;44177;43.356;27.672;2023-06-26T07:14:51;3.00;;;2.28;;
58372;SDS011;44177;43.356;27.672;2023-06-26T07:17:18;3.70;;;2.65;;
58372;SDS011;44177;43.356;27.672;2023-06-26T07:19:44;2.60;;;2.40;;
58372;SDS011;44177;43.356;27.672;2023-06-26T07:22:10;3.60;;;2.47;;
58372;SDS011;44177;43.356;27.672;2023-06-26T07:24:36;4.03;;;2.78;;
58372;SDS011;44177;43.356;27.672;2023-06-26T07:27:01;3.95;;;2.80;;
58372;SDS011;44177;43.356;27.672;2023-06-26T07:29:27;2.80;;;2.38;;
58372;SDS011;44177;43.356;27.672;2023-06-26T07:31:52;3.63;;;2.78;;
58372;SDS011;44177;43.356;27.672;2023-06-26T07:34:18;2.58;;;2.30;;
58372;SDS011;44177;43.356;27.672;2023-06-26T07:36:43;2.95;;;2.35;;
58372;SDS011;44177;43.356;27.672;2023-06-26T07:39:09;3.22;;;2.28;;
58372;SDS011;44177;43.356;27.672;2023-06-26T07:41:34;2.72;;;2.50;;
58372;SDS011;44177;43.356;27.672;2023-06-26T07:43:59;3.17;;;2.33;;
58372;SDS011;44177;43.356;27.672;2023-06-26T07:46:25;4.10;;;2.25;;
58372;SDS011;44177;43.356;27.672;2023-06-26T07:48:50;2.60;;;2.13;;
58372;SDS011;44177;43.356;27.672;2023-06-26T07:51:16;3.05;;;2.35;;
58372;SDS011;44177;43.356;27.672;2023-06-26T07:53:41;3.17;;;2.17;;
58372;SDS011;44177;43.356;27.672;2023-06-26T07:56:07;3.35;;;2.47;;
58372;SDS011;44177;43.356;27.672;2023-06-26T07:58:32;3.28;;;2.95;;
58372;SDS011;44177;43.356;27.672;2023-06-26T08:00:57;4.10;;;2.92;;
58372;SDS011;44177;43.356;27.672;2023-06-26T08:03:23;3.35;;;2.55;;
58372;SDS011;44177;43.356;27.672;2023-06-26T08:05:49;3.83;;;2.60;;
58372;SDS011;44177;43.356;27.672;2023-06-26T08:08:14;4.93;;;2.70;;
58372;SDS011;44177;43.356;27.672;2023-06-26T08:10:40;3.88;;;2.55;;
58372;SDS011;44177;43.356;27.672;2023-06-26T08:13:05;4.90;;;2.92;;
58372;SDS011;44177;43.356;27.672;2023-06-26T08:15:31;3.10;;;2.50;;
58372;SDS011;44177;43.356;27.672;2023-06-26T08:17:56;3.55;;;2.58;;
58372;SDS011;44177;43.356;27.672;2023-06-26T08:20:22;3.70;;;2.97;;
58372;SDS011;44177;43.356;27.672;2023-06-26T08:22:47;2.70;;;2.20;;
58372;SDS011;44177;43.356;27.672;2023-06-26T08:25:15;4.00;;;2.67;;
58372;SDS011;44177;43.356;27.672;2023-06-26T08:27:41;3.13;;;2.25;;
58372;SDS011;44177;43.356;27.672;2023-06-26T08:30:06;5.10;;;2.40;;
58372;SDS011;44177;43.356;27.672;2023-06-26T08:32:32;3.42;;;2.75;;
58372;SDS011;44177;43.356;27.672;2023-06-26T08:34:58;3.78;;;2.08;;
58372;SDS011;44177;43.356;27.672;2023-06-26T08:37:23;3.78;;;2.90;;
58372;SDS011;44177;43.356;27.672;2023-06-26T08:39:48;3.47;;;2.65;;
58372;SDS011;44177;43.356;27.672;2023-06-26T08:42:14;3.03;;;2.50;;
58372;SDS011;44177;43.356;27.672;2023-06-26T08:44:39;2.50;;;2.13;;
58372;SDS011;44177;43.356;27.672;2023-06-26T08:47:05;3.10;;;2.42;;
58372;SDS011;44177;43.356;27.672;2023-06-26T08:49:46;3.78;;;2.38;;
58372;SDS011;44177;43.356;27.672;2023-06-26T08:52:24;4.03;;;2.50;;
58372;SDS011;44177;43.356;27.672;2023-06-26T08:54:57;2.30;;;1.98;;
58372;SDS011;44177;43.356;27.672;2023-06-26T08:57:24;3.17;;;2.30;;
58372;SDS011;44177;43.356;27.672;2023-06-26T08:59:51;3.10;;;2.13;;
58372;SDS011;44177;43.356;27.672;2023-06-26T09:02:17;3.28;;;2.30;;
58372;SDS011;44177;43.356;27.672;2023-06-26T09:04:43;2.60;;;2.05;;
58372;SDS011;44177;43.356;27.672;2023-06-26T09:07:09;2.47;;;1.52;;
58372;SDS011;44177;43.356;27.672;2023-06-26T09:09:35;3.42;;;2.30;;
58372;SDS011;44177;43.356;27.672;2023-06-26T09:12:03;3.38;;;2.13;;
58372;SDS011;44177;43.356;27.672;2023-06-26T09:14:29;2.88;;;1.70;;
58372;SDS011;44177;43.356;27.672;2023-06-26T09:16:55;2.58;;;1.85;;
58372;SDS011;44177;43.356;27.672;2023-06-26T09:19:20;2.85;;;2.17;;
58372;SDS011;44177;43.356;27.672;2023-06-26T09:21:47;3.08;;;1.70;;
58372;SDS011;44177;43.356;27.672;2023-06-26T09:24:14;2.50;;;1.80;;
58372;SDS011;44177;43.356;27.672;2023-06-26T09:26:41;2.33;;;1.50;;
58372;SDS011;44177;43.356;27.672;2023-06-26T09:29:07;3.05;;;1.75;;
58372;SDS011;44177;43.356;27.672;2023-06-26T09:31:33;2.08;;;1.88;;
58372;SDS011;44177;43.356;27.672;2023-06-26T09:34:01;2.10;;;1.90;;
58372;SDS011;44177;43.356;27.672;2023-06-26T09:36:28;2.40;;;1.70;;
58372;SDS011;44177;43.356;27.672;2023-06-26T09:39:01;1.88;;;1.60;;
58372;SDS011;44177;43.356;27.672;2023-06-26T09:41:28;2.13;;;1.40;;
58372;SDS011;44177;43.356;27.672;2023-06-26T09:43:53;1.88;;;1.20;;
58372;SDS011;44177;43.356;27.672;2023-06-26T09:46:26;1.42;;;1.33;;
58372;SDS011;44177;43.356;27.672;2023-06-26T09:49:02;1.88;;;1.30;;
58372;SDS011;44177;43.356;27.672;2023-06-26T09:51:32;2.83;;;1.60;;
58372;SDS011;44177;43.356;27.672;2023-06-26T09:53:59;2.42;;;1.70;;
58372;SDS011;44177;43.356;27.672;2023-06-26T09:56:26;2.75;;;1.70;;
58372;SDS011;44177;43.356;27.672;2023-06-26T09:58:53;1.73;;;1.55;;
58372;SDS011;44177;43.356;27.672;2023-06-26T10:01:26;1.25;;;1.15;;
58372;SDS011;44177;43.356;27.672;2023-06-26T10:03:52;1.90;;;1.55;;
58372;SDS011;44177;43.356;27.672;2023-06-26T10:06:19;1.98;;;1.38;;
58372;SDS011;44177;43.356;27.672;2023-06-26T10:08:49;3.65;;;1.60;;
58372;SDS011;44177;43.356;27.672;2023-06-26T10:11:16;2.08;;;1.73;;
58372;SDS011;44177;43.356;27.672;2023-06-26T10:13:47;1.52;;;1.42;;
58372;SDS011;44177;43.356;27.672;2023-06-26T10:16:17;1.88;;;1.38;;
58372;SDS011;44177;43.356;27.672;2023-06-26T10:18:53;2.05;;;1.45;;
58372;SDS011;44177;43.356;27.672;2023-06-26T10:21:24;2.20;;;1.77;;
58372;SDS011;44177;43.356;27.672;2023-06-26T10:23:53;1.48;;;1.38;;
58372;SDS011;44177;43.356;27.672;2023-06-26T10:26:20;4.40;;;1.58;;
58372;SDS011;44177;43.356;27.672;2023-06-26T10:28:47;2.20;;;1.50;;
58372;SDS011;44177;43.356;27.672;2023-06-26T10:31:18;2.53;;;1.60;;
58372;SDS011;44177;43.356;27.672;2023-06-26T10:33:47;2.22;;;1.75;;
58372;SDS011;44177;43.356;27.672;2023-06-26T10:36:17;1.35;;;1.10;;
58372;SDS011;44177;43.356;27.672;2023-06-26T10:39:04;2.75;;;1.55;;
58372;SDS011;44177;43.356;27.672;2023-06-26T10:41:36;2.25;;;1.50;;
58372;SDS011;44177;43.356;27.672;2023-06-26T10:46:50;1.40;;;1.30;;
58372;SDS011;44177;43.356;27.672;2023-06-26T10:49:18;2.45;;;1.67;;
58372;SDS011;44177;43.356;27.672;2023-06-26T10:51:47;2.00;;;1.90;;
58372;SDS011;44177;43.356;27.672;2023-06-26T10:54:17;1.58;;;1.33;;
58372;SDS011;44177;43.356;27.672;2023-06-26T10:56:44;1.75;;;1.40;;
58372;SDS011;44177;43.356;27.672;2023-06-26T11:01:41;1.30;;;1.20;;
58372;SDS011;44177;43.356;27.672;2023-06-26T11:04:10;1.30;;;1.20;;
58372;SDS011;44177;43.356;27.672;2023-06-26T11:06:37;1.95;;;1.60;;
58372;SDS011;44177;43.356;27.672;2023-06-26T11:14:17;1.10;;;1.02;;
58372;SDS011;44177;43.356;27.672;2023-06-26T11:16:43;1.83;;;1.60;;
58372;SDS011;44177;43.356;27.672;2023-06-26T11:19:09;1.35;;;1.25;;
58372;SDS011;44177;43.356;27.672;2023-06-26T11:21:38;1.70;;;1.05;;
58372;SDS011;44177;43.356;27.672;2023-06-26T11:24:04;1.30;;;1.15;;
58372;SDS011;44177;43.356;27.672;2023-06-26T11:26:40;1.40;;;1.23;;
58372;SDS011;44177;43.356;27.672;2023-06-26T11:29:07;1.45;;;1.33;;
58372;SDS011;44177;43.356;27.672;2023-06-26T11:31:34;1.55;;;1.27;;
58372;SDS011;44177;43.356;27.672;2023-06-26T11:34:02;1.48;;;1.35;;
58372;SDS011;44177;43.356;27.672;2023-06-26T11:36:38;1.25;;;1.15;;
58372;SDS011;44177;43.356;27.672;2023-06-26T11:39:06;1.73;;;1.58;;
58372;SDS011;44177;43.356;27.672;2023-06-26T11:41:33;2.17;;;1.60;;
58372;SDS011;44177;43.356;27.672;2023-06-26T11:44:07;2.00;;;1.55;;
58372;SDS011;44177;43.356;27.672;2023-06-26T11:46:36;1.67;;;1.50;;
58372;SDS011;44177;43.356;27.672;2023-06-26T11:49:03;1.50;;;1.05;;
58372;SDS011;44177;43.356;27.672;2023-06-26T11:51:29;1.20;;;1.10;;
58372;SDS011;44177;43.356;27.672;2023-06-26T11:53:55;2.05;;;1.40;;
58372;SDS011;44177;43.356;27.672;2023-06-26T11:56:20;1.52;;;1.40;;
58372;SDS011;44177;43.356;27.672;2023-06-26T12:01:23;2.05;;;1.48;;
58372;SDS011;44177;43.356;27.672;2023-06-26T12:03:49;1.13;;;1.08;;
58372;SDS011;44177;43.356;27.672;2023-06-26T12:06:15;1.77;;;1.52;;
58372;SDS011;44177;43.356;27.672;2023-06-26T12:08:42;1.65;;;1.23;;
58372;SDS011;44177;43.356;27.672;2023-06-26T12:11:07;1.35;;;1.15;;
58372;SDS011;44177;43.356;27.672;2023-06-26T12:13:33;1.30;;;1.20;;
58372;SDS011;44177;43.356;27.672;2023-06-26T12:15:59;1.13;;;1.00;;
58372;SDS011;44177;43.356;27.672;2023-06-26T12:18:25;1.58;;;1.40;;
58372;SDS011;44177;43.356;27.672;2023-06-26T12:20:51;1.20;;;1.10;;
58372;SDS011;44177;43.356;27.672;2023-06-26T12:23:17;1.42;;;1.20;;
58372;SDS011;44177;43.356;27.672;2023-06-26T12:25:43;1.70;;;1.27;;
58372;SDS011;44177;43.356;27.672;2023-06-26T12:28:18;1.10;;;1.00;;
58372;SDS011;44177;43.356;27.672;2023-06-26T12:30:47;1.33;;;1.10;;
58372;SDS011;44177;43.356;27.672;2023-06-26T12:33:14;1.65;;;1.30;;
58372;SDS011;44177;43.356;27.672;2023-06-26T12:35:40;1.13;;;1.10;;
58372;SDS011;44177;43.356;27.672;2023-06-26T12:38:07;1.20;;;1.10;;
58372;SDS011;44177;43.356;27.672;2023-06-26T12:40:35;1.88;;;1.25;;
58372;SDS011;44177;43.356;27.672;2023-06-26T12:43:22;1.25;;;1.15;;
58372;SDS011;44177;43.356;27.672;2023-06-26T12:45:48;1.08;;;1.00;;
58372;SDS011;44177;43.356;27.672;2023-06-26T12:48:19;2.75;;;1.10;;
58372;SDS011;44177;43.356;27.672;2023-06-26T12:50:45;1.10;;;1.00;;
58372;SDS011;44177;43.356;27.672;2023-06-26T12:53:10;1.58;;;1.10;;
58372;SDS011;44177;43.356;27.672;2023-06-26T12:55:36;1.20;;;1.10;;
58372;SDS011;44177;43.356;27.672;2023-06-26T12:58:02;2.22;;;0.90;;
58372;SDS011;44177;43.356;27.672;2023-06-26T13:00:27;1.98;;;1.20;;
58372;SDS011;44177;43.356;27.672;2023-06-26T13:02:53;1.30;;;1.00;;
58372;SDS011;44177;43.356;27.672;2023-06-26T13:05:18;1.27;;;1.10;;
58372;SDS011;44177;43.356;27.672;2023-06-26T13:07:44;1.42;;;1.15;;
58372;SDS011;44177;43.356;27.672;2023-06-26T13:10:09;1.95;;;1.38;;
58372;SDS011;44177;43.356;27.672;2023-06-26T13:12:35;1.38;;;1.13;;
58372;SDS011;44177;43.356;27.672;2023-06-26T13:15:00;1.58;;;1.20;;
58372;SDS011;44177;43.356;27.672;2023-06-26T13:17:26;1.85;;;1.48;;
58372;SDS011;44177;43.356;27.672;2023-06-26T13:19:51;1.30;;;1.20;;
58372;SDS011;44177;43.356;27.672;2023-06-26T13:22:17;1.00;;;0.90;;
58372;SDS011;44177;43.356;27.672;2023-06-26T13:24:42;2.00;;;1.13;;
58372;SDS011;44177;43.356;27.672;2023-06-26T13:27:08;1.50;;;1.25;;
58372;SDS011;44177;43.356;27.672;2023-06-26T13:29:33;1.52;;;1.10;;
58372;SDS011;44177;43.356;27.672;2023-06-26T13:31:58;1.88;;;1.40;;
58372;SDS011;44177;43.356;27.672;2023-06-26T13:34:24;1.80;;;1.23;;
58372;SDS011;44177;43.356;27.672;2023-06-26T13:36:53;1.45;;;0.98;;
58372;SDS011;44177;43.356;27.672;2023-06-26T13:39:19;1.00;;;0.93;;
58372;SDS011;44177;43.356;27.672;2023-06-26T13:41:45;1.35;;;1.10;;
58372;SDS011;44177;43.356;27.672;2023-06-26T13:44:11;1.30;;;1.13;;
58372;SDS011;44177;43.356;27.672;2023-06-26T13:46:36;2.28;;;1.08;;
58372;SDS011;44177;43.356;27.672;2023-06-26T13:49:02;1.30;;;1.17;;
58372;SDS011;44177;43.356;27.672;2023-06-26T13:51:27;1.75;;;1.48;;
58372;SDS011;44177;43.356;27.672;2023-06-26T13:53:53;1.33;;;1.20;;
58372;SDS011;44177;43.356;27.672;2023-06-26T13:56:20;0.90;;;0.90;;
58372;SDS011;44177;43.356;27.672;2023-06-26T13:58:45;1.25;;;1.08;;
58372;SDS011;44177;43.356;27.672;2023-06-26T14:01:11;1.92;;;1.17;;
58372;SDS011;44177;43.356;27.672;2023-06-26T14:03:37;1.30;;;1.15;;
58372;SDS011;44177;43.356;27.672;2023-06-26T14:06:03;1.73;;;1.27;;
58372;SDS011;44177;43.356;27.672;2023-06-26T14:08:29;2.45;;;1.60;;
58372;SDS011;44177;43.356;27.672;2023-06-26T14:10:54;2.40;;;1.20;;
58372;SDS011;44177;43.356;27.672;2023-06-26T14:13:20;1.42;;;1.08;;
58372;SDS011;44177;43.356;27.672;2023-06-26T14:15:45;1.95;;;1.20;;
58372;SDS011;44177;43.356;27.672;2023-06-26T14:18:11;3.63;;;1.42;;
58372;SDS011;44177;43.356;27.672;2023-06-26T14:20:36;1.42;;;1.17;;
58372;SDS011;44177;43.356;27.672;2023-06-26T14:23:02;1.20;;;1.10;;
58372;SDS011;44177;43.356;27.672;2023-06-26T14:25:27;2.80;;;1.50;;
58372;SDS011;44177;43.356;27.672;2023-06-26T14:27:54;1.48;;;1.17;;
58372;SDS011;44177;43.356;27.672;2023-06-26T14:30:20;2.08;;;1.38;;
58372;SDS011;44177;43.356;27.672;2023-06-26T14:32:46;1.55;;;1.25;;
58372;SDS011;44177;43.356;27.672;2023-06-26T14:35:11;2.17;;;1.15;;
58372;SDS011;44177;43.356;27.672;2023-06-26T14:37:37;1.73;;;1.20;;
58372;SDS011;44177;43.356;27.672;2023-06-26T14:40:04;1.42;;;1.27;;
58372;SDS011;44177;43.356;27.672;2023-06-26T14:42:33;1.30;;;1.10;;
58372;SDS011;44177;43.356;27.672;2023-06-26T14:44:59;1.15;;;1.05;;
58372;SDS011;44177;43.356;27.672;2023-06-26T14:47:24;1.35;;;1.17;;
58372;SDS011;44177;43.356;27.672;2023-06-26T14:49:50;1.98;;;1.77;;